createdAt,value
2022-12-02T00:00:27.491Z,-16.75
2022-12-02T00:02:59.828Z,-16.74
2022-12-02T00:05:36.804Z,-16.79
2022-12-02T00:08:25.392Z,-16.89
2022-12-02T00:10:57.716Z,-17.02
2022-12-02T00:13:46.508Z,-17.09
2022-12-02T00:16:24.667Z,-17.03
2022-12-02T00:18:55.611Z,-17.05
2022-12-02T00:21:25.100Z,-17.14
2022-12-02T00:23:54.030Z,-17.19
2022-12-02T00:26:23.263Z,-17.21
2022-12-02T00:28:52.515Z,-17.27
2022-12-02T00:31:21.990Z,-17.38
2022-12-02T00:33:51.223Z,-17.47
2022-12-02T00:36:20.557Z,-17.66
2022-12-02T00:38:50.529Z,-17.80
2022-12-02T00:41:19.868Z,-17.77
2022-12-02T00:44:07.426Z,-17.80
2022-12-02T00:46:37.373Z,-17.88
2022-12-02T00:49:16.472Z,-17.91
2022-12-02T00:51:47.664Z,-17.86
2022-12-02T00:54:16.939Z,-17.84
2022-12-02T00:56:46.247Z,-17.84
2022-12-02T00:59:15.562Z,-17.83
2022-12-02T01:01:46.133Z,-17.92
2022-12-02T01:04:15.400Z,-18.01
2022-12-02T01:06:44.682Z,-17.95
2022-12-02T01:09:13.972Z,-17.92
2022-12-02T01:11:43.359Z,-17.97
2022-12-02T01:14:12.583Z,-18.20
2022-12-02T01:16:41.544Z,-18.39
2022-12-02T01:19:10.744Z,-18.55
2022-12-02T01:21:40.368Z,-18.78
2022-12-02T01:24:09.515Z,-18.96
2022-12-02T01:26:38.667Z,-18.94
2022-12-02T01:29:07.673Z,-18.91
2022-12-02T01:31:36.836Z,-18.85
2022-12-02T01:34:05.873Z,-18.80
2022-12-02T01:36:34.901Z,-18.73
2022-12-02T01:39:04.056Z,-18.73
2022-12-02T01:41:33.436Z,-18.88
2022-12-02T01:44:03.294Z,-18.93
2022-12-02T01:46:32.424Z,-18.99
2022-12-02T01:49:01.667Z,-18.98
2022-12-02T01:51:30.971Z,-19.06
2022-12-02T01:54:00.397Z,-19.07
2022-12-02T01:56:30.062Z,-19.07
2022-12-02T01:58:59.028Z,-18.99
2022-12-02T02:01:35.374Z,-18.92
2022-12-02T02:04:05.951Z,-18.92
2022-12-02T02:06:41.057Z,-18.81
2022-12-02T02:09:11.075Z,-18.82
2022-12-02T02:11:42.760Z,-18.93
2022-12-02T02:14:14.976Z,-19.02
2022-12-02T02:16:44.158Z,-19.04
2022-12-02T02:19:16.454Z,-19.10
2022-12-02T02:21:53.201Z,-19.13
2022-12-02T02:24:22.223Z,-19.05
2022-12-02T02:26:51.505Z,-19.05
2022-12-02T02:29:21.609Z,-19.17
2022-12-02T02:31:51.675Z,-19.24
2022-12-02T02:34:21.007Z,-19.28
2022-12-02T02:36:50.133Z,-19.30
2022-12-02T02:39:19.630Z,-19.32
2022-12-02T02:41:48.810Z,-19.37
2022-12-02T02:44:24.027Z,-19.31
2022-12-02T02:46:55.022Z,-19.36
2022-12-02T02:49:25.635Z,-19.44
2022-12-02T02:51:55.206Z,-19.54
2022-12-02T02:54:24.293Z,-19.62
2022-12-02T02:56:53.448Z,-19.75
2022-12-02T02:59:22.482Z,-19.78
2022-12-02T03:01:53.723Z,-19.80
2022-12-02T03:04:26.715Z,-19.82
2022-12-02T03:06:58.758Z,-19.99
2022-12-02T03:09:27.951Z,-20.14
2022-12-02T03:11:59.394Z,-20.16
2022-12-02T03:14:29.767Z,-20.18
2022-12-02T03:17:02.443Z,-20.22
2022-12-02T03:19:34.646Z,-20.26
2022-12-02T03:22:05.806Z,-20.23
2022-12-02T03:24:36.856Z,-20.25
2022-12-02T03:27:08.328Z,-20.30
2022-12-02T03:29:38.459Z,-20.33
2022-12-02T03:32:08.320Z,-20.34
2022-12-02T03:34:37.366Z,-20.44
2022-12-02T03:37:06.766Z,-20.40
2022-12-02T03:39:36.638Z,-20.36
2022-12-02T03:42:06.647Z,-20.33
2022-12-02T03:44:35.736Z,-20.37
2022-12-02T03:47:06.382Z,-20.44
2022-12-02T03:49:36.808Z,-20.57
2022-12-02T03:52:06.605Z,-20.65
2022-12-02T03:54:37.207Z,-20.67
2022-12-02T03:57:11.584Z,-20.69
2022-12-02T03:59:40.842Z,-20.75
2022-12-02T04:02:10.229Z,-20.79
2022-12-02T04:04:39.211Z,-20.91
2022-12-02T04:07:08.361Z,-20.98
2022-12-02T04:09:37.528Z,-21.00
2022-12-02T04:12:06.923Z,-21.05
2022-12-02T04:14:36.034Z,-21.11
2022-12-02T04:17:08.130Z,-21.13
2022-12-02T04:19:37.898Z,-21.13
2022-12-02T04:22:07.027Z,-21.08
2022-12-02T04:24:36.025Z,-21.01
2022-12-02T04:27:05.053Z,-21.00
2022-12-02T04:29:34.091Z,-21.02
2022-12-02T04:32:03.169Z,-21.06
2022-12-02T04:34:32.554Z,-21.02
2022-12-02T04:37:01.550Z,-20.95
2022-12-02T04:39:31.132Z,-20.84
2022-12-02T04:42:00.169Z,-20.75
2022-12-02T04:44:29.327Z,-20.71
2022-12-02T04:46:58.513Z,-20.66
2022-12-02T04:49:27.579Z,-20.65
2022-12-02T04:51:56.708Z,-20.69
2022-12-02T04:54:25.846Z,-20.73
2022-12-02T04:56:55.241Z,-20.74
2022-12-02T04:59:24.466Z,-20.72
2022-12-02T05:01:53.532Z,-20.62
2022-12-02T05:04:22.567Z,-20.60
2022-12-02T05:06:51.675Z,-20.60
2022-12-02T05:09:20.714Z,-20.59
2022-12-02T05:11:49.954Z,-20.60
2022-12-02T05:14:18.932Z,-20.53
2022-12-02T05:16:47.962Z,-20.44
2022-12-02T05:19:16.968Z,-20.36
2022-12-02T05:21:45.943Z,-20.26
2022-12-02T05:24:14.946Z,-20.27
2022-12-02T05:26:44.076Z,-20.27
2022-12-02T05:29:13.142Z,-20.27
2022-12-02T05:31:42.529Z,-20.18
2022-12-02T05:34:11.592Z,-20.22
2022-12-02T05:36:40.758Z,-20.17
2022-12-02T05:39:09.707Z,-20.09
2022-12-02T05:41:40.106Z,-20.15
2022-12-02T05:44:29.157Z,-20.20
2022-12-02T05:47:11.971Z,-20.30
2022-12-02T05:49:42.995Z,-20.36
2022-12-02T05:52:26.983Z,-20.37
2022-12-02T05:55:01.335Z,-20.45
2022-12-02T05:57:33.366Z,-20.56
2022-12-02T06:00:24.444Z,-20.61
2022-12-02T06:03:02.836Z,-20.70
2022-12-02T06:05:47.840Z,-20.71
2022-12-02T06:08:26.978Z,-20.71
2022-12-02T06:11:06.458Z,-20.63
2022-12-02T06:13:39.724Z,-20.56
2022-12-02T06:16:19.685Z,-20.55
2022-12-02T06:18:49.763Z,-20.55
2022-12-02T06:21:23.845Z,-20.53
2022-12-02T06:23:59.152Z,-20.54
2022-12-02T06:26:28.479Z,-20.52
2022-12-02T06:29:05.934Z,-20.55
2022-12-02T06:31:43.945Z,-20.61
2022-12-02T06:34:39.714Z,-20.69
2022-12-02T06:37:22.391Z,-20.71
2022-12-02T06:40:27.087Z,-20.80
2022-12-02T06:42:47.775Z,-20.86
2022-12-02T06:45:36.637Z,-20.95
2022-12-02T06:48:21.795Z,-20.99
2022-12-02T06:50:50.808Z,-21.09
2022-12-02T06:53:34.233Z,-21.16
2022-12-02T06:56:25.650Z,-21.17
2022-12-02T06:59:00.322Z,-21.28
2022-12-02T07:01:42.495Z,-21.27
2022-12-02T07:04:11.382Z,-21.32
2022-12-02T07:06:44.955Z,-21.38
2022-12-02T07:09:38.387Z,-21.52
2022-12-02T07:12:20.410Z,-21.70
2022-12-02T07:15:03.895Z,-21.78
2022-12-02T07:17:41.487Z,-21.85
2022-12-02T07:20:12.046Z,-21.75
2022-12-02T07:22:50.476Z,-21.63
2022-12-02T07:25:19.563Z,-21.58
2022-12-02T07:27:52.775Z,-21.57
2022-12-02T07:30:33.819Z,-21.56
2022-12-02T07:33:03.258Z,-21.54
2022-12-02T07:35:32.291Z,-21.57
2022-12-02T07:38:01.256Z,-21.59
2022-12-02T07:40:30.374Z,-21.53
2022-12-02T07:42:59.670Z,-21.51
2022-12-02T07:45:28.905Z,-21.52
2022-12-02T07:47:59.278Z,-21.49
2022-12-02T07:50:28.496Z,-21.50
2022-12-02T07:52:57.810Z,-21.59
2022-12-02T07:55:27.609Z,-21.65
2022-12-02T07:57:56.965Z,-21.70
2022-12-02T08:00:26.728Z,-21.75
2022-12-02T08:02:58.480Z,-21.82
2022-12-02T08:05:27.739Z,-21.95
2022-12-02T08:07:57.366Z,-22.01
2022-12-02T08:10:26.930Z,-22.06
2022-12-02T08:12:55.993Z,-22.15
2022-12-02T08:15:24.951Z,-22.16
2022-12-02T08:17:53.831Z,-22.21
2022-12-02T08:20:22.939Z,-22.27
2022-12-02T08:22:52.104Z,-22.30
2022-12-02T08:25:21.317Z,-22.38
2022-12-02T08:27:50.359Z,-22.38
2022-12-02T08:30:22.651Z,-22.48
2022-12-02T08:32:51.706Z,-22.54
2022-12-02T08:35:20.842Z,-22.64
2022-12-02T08:37:50.519Z,-22.65
2022-12-02T08:40:19.762Z,-22.70
2022-12-02T08:42:48.777Z,-22.84
2022-12-02T08:45:17.941Z,-22.91
2022-12-02T08:47:47.237Z,-22.96
2022-12-02T08:50:16.778Z,-22.95
2022-12-02T08:52:46.122Z,-22.94
2022-12-02T08:55:15.475Z,-23.02
2022-12-02T08:57:44.700Z,-23.05
2022-12-02T09:00:14.563Z,-23.08
2022-12-02T09:02:43.693Z,-23.08
2022-12-02T09:05:13.083Z,-23.11
2022-12-02T09:07:42.655Z,-23.27
2022-12-02T09:10:14.632Z,-23.34
2022-12-02T09:12:43.783Z,-23.37
2022-12-02T09:15:13.268Z,-23.38
2022-12-02T09:17:42.451Z,-23.41
2022-12-02T09:20:12.312Z,-23.49
2022-12-02T09:22:41.863Z,-23.58
2022-12-02T09:25:11.092Z,-23.61
2022-12-02T09:27:41.787Z,-23.62
2022-12-02T09:30:12.690Z,-23.68
2022-12-02T09:32:41.761Z,-23.68
2022-12-02T09:35:12.006Z,-23.69
2022-12-02T09:37:41.100Z,-23.75
2022-12-02T09:40:11.682Z,-23.87
2022-12-02T09:42:40.612Z,-23.93
2022-12-02T09:45:10.079Z,-23.99
2022-12-02T09:47:39.119Z,-24.03
2022-12-02T09:50:09.392Z,-24.06
2022-12-02T09:52:38.757Z,-24.11
2022-12-02T09:55:17.191Z,-24.18
2022-12-02T09:57:47.335Z,-24.20
2022-12-02T10:00:21.369Z,-24.17
2022-12-02T10:02:56.213Z,-24.18
2022-12-02T10:05:30.994Z,-24.22
2022-12-02T10:08:02.491Z,-24.31
2022-12-02T10:10:41.804Z,-24.33
2022-12-02T10:13:20.611Z,-24.30
2022-12-02T10:15:50.021Z,-24.33
2022-12-02T10:18:22.304Z,-24.38
2022-12-02T10:20:54.673Z,-24.41
2022-12-02T10:23:31.944Z,-24.46
2022-12-02T10:26:14.204Z,-24.45
2022-12-02T10:28:44.526Z,-24.42
2022-12-02T10:31:23.525Z,-24.47
2022-12-02T10:34:05.613Z,-24.54
2022-12-02T10:36:45.182Z,-24.54
2022-12-02T10:39:23.856Z,-24.53
2022-12-02T10:42:17.784Z,-24.49
2022-12-02T10:44:49.007Z,-24.40
2022-12-02T10:47:27.204Z,-24.39
2022-12-02T10:49:58.478Z,-24.36
2022-12-02T10:52:51.263Z,-24.38
2022-12-02T10:55:22.526Z,-24.48
2022-12-02T10:57:52.742Z,-24.41
2022-12-02T11:00:26.349Z,-24.41
2022-12-02T11:03:05.439Z,-24.47
2022-12-02T11:05:38.713Z,-24.48
2022-12-02T11:08:22.936Z,-24.52
2022-12-02T11:11:36.092Z,-24.37
2022-12-02T11:14:15.514Z,-24.26
2022-12-02T11:16:54.026Z,-24.27
2022-12-02T11:19:47.611Z,-24.26
2022-12-02T11:22:59.939Z,-24.25
2022-12-02T11:25:50.327Z,-24.23
2022-12-02T11:28:31.634Z,-24.14
2022-12-02T11:31:13.217Z,-24.04
2022-12-02T11:33:58.875Z,-24.07
2022-12-02T11:36:34.664Z,-24.01
2022-12-02T11:39:11.475Z,-24.03
2022-12-02T11:41:49.280Z,-24.04
2022-12-02T11:44:31.381Z,-24.01
2022-12-02T11:47:06.276Z,-24.04
2022-12-02T11:49:42.686Z,-24.01
2022-12-02T11:52:12.873Z,-24.15
2022-12-02T11:54:48.341Z,-24.33
2022-12-02T11:57:30.611Z,-24.33
2022-12-02T12:00:00.874Z,-24.31
2022-12-02T12:02:30.127Z,-24.35
2022-12-02T12:05:11.239Z,-24.37
2022-12-02T12:07:48.508Z,-24.42
2022-12-02T12:10:36.066Z,-24.53
2022-12-02T12:13:37.071Z,-24.59
2022-12-02T12:16:07.008Z,-24.70
2022-12-02T12:18:46.376Z,-24.71
2022-12-02T12:21:49.841Z,-24.80
2022-12-02T12:24:19.312Z,-24.83
2022-12-02T12:26:52.417Z,-24.92
2022-12-02T12:29:24.252Z,-24.98
2022-12-02T12:31:53.688Z,-25.04
2022-12-02T12:34:22.820Z,-25.13
2022-12-02T12:36:52.310Z,-25.15
2022-12-02T12:39:21.369Z,-25.14
2022-12-02T12:42:05.689Z,-25.13
2022-12-02T12:44:35.605Z,-25.13
2022-12-02T12:47:06.658Z,-25.19
2022-12-02T12:49:36.981Z,-25.31
2022-12-02T12:52:06.427Z,-25.36
2022-12-02T12:54:37.049Z,-25.47
2022-12-02T12:57:06.112Z,-25.58
2022-12-02T12:59:35.564Z,-25.59
2022-12-02T13:02:04.936Z,-25.60
2022-12-02T13:04:34.006Z,-25.57
2022-12-02T13:07:03.149Z,-25.56
2022-12-02T13:09:32.210Z,-25.58
2022-12-02T13:12:01.125Z,-25.60
2022-12-02T13:14:30.222Z,-25.59
2022-12-02T13:16:59.290Z,-25.51
2022-12-02T13:19:28.494Z,-25.51
2022-12-02T13:21:58.466Z,-25.50
2022-12-02T13:24:27.503Z,-25.50
2022-12-02T13:26:57.069Z,-25.50
2022-12-02T13:29:26.470Z,-25.45
2022-12-02T13:31:55.577Z,-25.44
2022-12-02T13:34:24.734Z,-25.40
2022-12-02T13:36:54.086Z,-25.35
2022-12-02T13:39:23.135Z,-25.29
2022-12-02T13:41:52.189Z,-25.22
2022-12-02T13:44:23.697Z,-25.15
2022-12-02T13:46:52.813Z,-25.06
2022-12-02T13:49:21.896Z,-25.02
2022-12-02T13:51:50.956Z,-24.98
2022-12-02T13:54:19.972Z,-24.97
2022-12-02T13:56:48.973Z,-24.93
2022-12-02T13:59:18.661Z,-24.91
2022-12-02T14:01:47.759Z,-24.83
2022-12-02T14:04:17.238Z,-24.77
2022-12-02T14:06:46.543Z,-24.76
2022-12-02T14:09:15.692Z,-24.82
2022-12-02T14:11:44.785Z,-24.90
2022-12-02T14:14:13.985Z,-24.90
2022-12-02T14:16:43.167Z,-24.86
2022-12-02T14:19:12.339Z,-24.88
2022-12-02T14:21:41.473Z,-24.94
2022-12-02T14:24:10.566Z,-25.00
2022-12-02T14:26:39.693Z,-25.09
2022-12-02T14:29:08.693Z,-25.17
2022-12-02T14:31:37.708Z,-25.27
2022-12-02T14:34:11.964Z,-25.38
2022-12-02T14:36:44.648Z,-25.45
2022-12-02T14:39:14.044Z,-25.46
2022-12-02T14:41:43.026Z,-25.48
2022-12-02T14:44:12.315Z,-25.51
2022-12-02T14:46:46.435Z,-25.55
2022-12-02T14:49:39.004Z,-25.57
2022-12-02T14:52:08.663Z,-25.52
2022-12-02T14:54:38.079Z,-25.65
2022-12-02T14:57:07.782Z,-25.86
2022-12-02T14:59:37.079Z,-25.91
2022-12-02T15:02:06.111Z,-25.88
2022-12-02T15:04:35.124Z,-25.83
2022-12-02T15:07:04.381Z,-25.87
2022-12-02T15:09:33.581Z,-25.90
2022-12-02T15:12:02.669Z,-25.87
2022-12-02T15:14:31.923Z,-25.91
2022-12-02T15:17:01.085Z,-25.98
2022-12-02T15:19:30.256Z,-26.02
2022-12-02T15:21:59.418Z,-26.02
2022-12-02T15:24:28.509Z,-26.03
2022-12-02T15:27:00.280Z,-26.04
2022-12-02T15:29:30.265Z,-26.06
2022-12-02T15:31:59.329Z,-26.06
2022-12-02T15:34:28.462Z,-26.12
2022-12-02T15:36:57.423Z,-26.17
2022-12-02T15:39:26.472Z,-26.18
2022-12-02T15:41:55.731Z,-26.23
2022-12-02T15:44:27.607Z,-26.23
2022-12-02T15:46:57.728Z,-26.23
2022-12-02T15:49:26.763Z,-26.19
2022-12-02T15:51:55.831Z,-26.22
2022-12-02T15:54:24.910Z,-26.18
2022-12-02T15:56:54.674Z,-26.10
2022-12-02T15:59:23.955Z,-26.03
2022-12-02T16:01:53.097Z,-26.04
2022-12-02T16:04:22.108Z,-26.00
2022-12-02T16:06:51.292Z,-25.95
2022-12-02T16:09:20.820Z,-25.89
2022-12-02T16:11:50.110Z,-25.93
2022-12-02T16:14:19.152Z,-26.00
2022-12-02T16:16:48.326Z,-25.93
2022-12-02T16:19:17.416Z,-25.85
2022-12-02T16:21:46.686Z,-25.77
2022-12-02T16:24:16.051Z,-25.73
2022-12-02T16:26:45.090Z,-25.59
2022-12-02T16:29:14.186Z,-25.51
2022-12-02T16:31:43.291Z,-25.48
2022-12-02T16:34:12.501Z,-25.42
2022-12-02T16:36:41.595Z,-25.41
2022-12-02T16:39:10.741Z,-25.36
2022-12-02T16:41:39.844Z,-25.25
2022-12-02T16:44:09.086Z,-25.16
2022-12-02T16:46:38.891Z,-25.09
2022-12-02T16:49:10.873Z,-25.03
2022-12-02T16:51:40.227Z,-24.99
2022-12-02T16:54:09.284Z,-24.98
2022-12-02T16:56:38.453Z,-24.95
2022-12-02T16:59:07.437Z,-24.86
2022-12-02T17:01:37.363Z,-24.80
2022-12-02T17:04:06.739Z,-24.74
2022-12-02T17:06:35.884Z,-24.67
2022-12-02T17:09:04.896Z,-24.58
2022-12-02T17:11:34.454Z,-24.51
2022-12-02T17:14:03.564Z,-24.44
2022-12-02T17:16:32.680Z,-24.40
2022-12-02T17:19:01.979Z,-24.32
2022-12-02T17:21:31.190Z,-24.23
2022-12-02T17:24:00.333Z,-24.19
2022-12-02T17:26:29.563Z,-24.13
2022-12-02T17:28:58.577Z,-24.02
2022-12-02T17:31:27.840Z,-23.93
2022-12-02T17:33:56.856Z,-23.85
2022-12-02T17:36:26.006Z,-23.79
2022-12-02T17:38:57.085Z,-23.71
2022-12-02T17:41:27.637Z,-23.65
2022-12-02T17:43:56.801Z,-23.60
2022-12-02T17:46:26.042Z,-23.53
2022-12-02T17:48:54.993Z,-23.47
2022-12-02T17:51:24.071Z,-23.44
2022-12-02T17:53:53.129Z,-23.43
2022-12-02T17:56:22.368Z,-23.33
2022-12-02T17:58:51.499Z,-23.26
2022-12-02T18:01:22.603Z,-23.21
2022-12-02T18:03:51.741Z,-23.09
2022-12-02T18:06:21.146Z,-22.97
2022-12-02T18:08:50.414Z,-22.83
2022-12-02T18:11:19.362Z,-22.67
2022-12-02T18:13:48.354Z,-22.54
2022-12-02T18:16:17.480Z,-22.39
2022-12-02T18:18:46.604Z,-22.25
2022-12-02T18:21:15.776Z,-22.15
2022-12-02T18:23:45.539Z,-22.07
2022-12-02T18:26:14.637Z,-21.95
2022-12-02T18:28:43.662Z,-21.83
2022-12-02T18:31:13.673Z,-21.74
2022-12-02T18:33:42.861Z,-21.63
2022-12-02T18:36:11.963Z,-21.56
2022-12-02T18:38:40.816Z,-21.46
2022-12-02T18:41:09.878Z,-21.39
2022-12-02T18:43:39.016Z,-21.33
2022-12-02T18:46:08.562Z,-21.31
2022-12-02T18:48:37.741Z,-21.23
2022-12-02T18:51:06.843Z,-21.18
2022-12-02T18:53:36.143Z,-21.15
2022-12-02T18:56:05.544Z,-21.10
2022-12-02T18:58:34.539Z,-21.01
2022-12-02T19:01:03.733Z,-20.90
2022-12-02T19:03:32.819Z,-20.77
2022-12-02T19:06:01.750Z,-20.66
2022-12-02T19:08:31.324Z,-20.58
2022-12-02T19:11:00.808Z,-20.46
2022-12-02T19:13:29.746Z,-20.35
2022-12-02T19:15:59.141Z,-20.31
2022-12-02T19:18:28.285Z,-20.21
2022-12-02T19:20:57.328Z,-20.06
2022-12-02T19:23:26.401Z,-19.92
2022-12-02T19:25:55.426Z,-19.79
2022-12-02T19:28:24.859Z,-19.78
2022-12-02T19:30:53.804Z,-19.77
2022-12-02T19:33:23.219Z,-19.68
2022-12-02T19:35:52.211Z,-19.58
2022-12-02T19:38:21.345Z,-19.51
2022-12-02T19:40:50.623Z,-19.47
2022-12-02T19:43:19.751Z,-19.42
2022-12-02T19:45:48.747Z,-19.38
2022-12-02T19:48:18.599Z,-19.30
2022-12-02T19:50:47.683Z,-19.21
2022-12-02T19:53:16.830Z,-19.17
2022-12-02T19:55:45.697Z,-19.14
2022-12-02T19:58:14.738Z,-19.08
2022-12-02T20:00:43.778Z,-19.01
2022-12-02T20:03:12.860Z,-18.91
2022-12-02T20:05:41.887Z,-18.86
2022-12-02T20:08:11.811Z,-18.81
2022-12-02T20:10:40.900Z,-18.69
2022-12-02T20:13:10.002Z,-18.63
2022-12-02T20:15:40.288Z,-18.59
2022-12-02T20:18:09.660Z,-18.49
2022-12-02T20:20:38.600Z,-18.38
2022-12-02T20:23:08.114Z,-18.27
2022-12-02T20:25:37.124Z,-18.21
2022-12-02T20:28:07.186Z,-18.21
2022-12-02T20:30:37.317Z,-18.15
2022-12-02T20:33:06.484Z,-18.04
2022-12-02T20:35:35.754Z,-17.92
2022-12-02T20:38:04.819Z,-17.75
2022-12-02T20:40:33.907Z,-17.57
2022-12-02T20:43:05.934Z,-17.41
2022-12-02T20:45:35.010Z,-17.25
2022-12-02T20:48:03.988Z,-17.08
2022-12-02T20:50:36.807Z,-16.98
2022-12-02T20:53:06.150Z,-16.83
2022-12-02T20:55:35.362Z,-16.69
2022-12-02T20:58:04.819Z,-16.54
2022-12-02T21:00:34.336Z,-16.39
2022-12-02T21:03:04.537Z,-16.23
2022-12-02T21:05:35.699Z,-16.09
2022-12-02T21:08:05.290Z,-15.94
2022-12-02T21:10:34.384Z,-15.84
2022-12-02T21:13:06.161Z,-15.71
2022-12-02T21:15:35.617Z,-15.64
2022-12-02T21:18:05.166Z,-15.50
2022-12-02T21:20:35.866Z,-15.38
2022-12-02T21:23:06.138Z,-15.29
2022-12-02T21:25:35.445Z,-15.21
2022-12-02T21:28:04.946Z,-15.16
2022-12-02T21:30:36.055Z,-15.08
2022-12-02T21:33:05.709Z,-15.00
2022-12-02T21:35:34.814Z,-14.92
2022-12-02T21:38:03.972Z,-14.84
2022-12-02T21:40:33.131Z,-14.77
2022-12-02T21:43:02.339Z,-14.70
2022-12-02T21:45:31.451Z,-14.61
2022-12-02T21:48:00.461Z,-14.53
2022-12-02T21:50:29.427Z,-14.47
2022-12-02T21:52:58.441Z,-14.39
2022-12-02T21:55:27.517Z,-14.36
2022-12-02T21:57:56.593Z,-14.31
2022-12-02T22:00:25.723Z,-14.27
2022-12-02T22:02:55.135Z,-14.23
2022-12-02T22:05:24.235Z,-14.18
2022-12-02T22:07:58.592Z,-14.13
2022-12-02T22:10:28.396Z,-14.06
2022-12-02T22:12:57.365Z,-13.98
2022-12-02T22:15:26.417Z,-13.89
2022-12-02T22:17:55.611Z,-13.80
2022-12-02T22:20:25.336Z,-13.72
2022-12-02T22:22:54.669Z,-13.66
2022-12-02T22:25:23.679Z,-13.59
2022-12-02T22:27:52.633Z,-13.47
2022-12-02T22:30:21.582Z,-13.41
2022-12-02T22:32:50.647Z,-13.37
2022-12-02T22:35:19.784Z,-13.28
2022-12-02T22:37:49.899Z,-13.22
2022-12-02T22:40:20.046Z,-13.13
2022-12-02T22:42:49.922Z,-13.07
2022-12-02T22:45:19.141Z,-13.04
2022-12-02T22:47:51.211Z,-13.02
2022-12-02T22:50:20.201Z,-13.02
2022-12-02T22:52:49.104Z,-13.05
2022-12-02T22:55:18.424Z,-13.07
2022-12-02T22:57:47.687Z,-13.09
2022-12-02T23:00:19.434Z,-13.09
2022-12-02T23:02:48.490Z,-13.08
2022-12-02T23:05:17.683Z,-13.08
2022-12-02T23:07:46.800Z,-13.09
2022-12-02T23:10:15.711Z,-13.08
2022-12-02T23:12:44.766Z,-13.05
2022-12-02T23:15:43.770Z,-13.07
2022-12-02T23:18:03.532Z,-13.06
2022-12-02T23:20:32.669Z,-13.06
2022-12-02T23:23:01.736Z,-13.08
2022-12-02T23:25:30.720Z,-13.07
2022-12-02T23:27:59.706Z,-13.07
2022-12-02T23:30:29.789Z,-13.09
2022-12-02T23:33:00.669Z,-13.08
2022-12-02T23:35:30.494Z,-13.06
2022-12-02T23:38:00.349Z,-13.05
2022-12-02T23:40:29.692Z,-13.06
2022-12-02T23:42:58.673Z,-13.07
2022-12-02T23:45:27.714Z,-13.07
2022-12-02T23:47:57.106Z,-13.06
2022-12-02T23:50:26.059Z,-13.08
2022-12-02T23:52:55.083Z,-13.08
2022-12-02T23:55:24.480Z,-13.06
2022-12-02T23:57:53.503Z,-13.05
